createdAt,value
2023-03-25T00:01:49.692Z,54.39
2023-03-25T00:04:18.677Z,54.56
2023-03-25T00:06:46.959Z,54.42
2023-03-25T00:09:14.851Z,54.47
2023-03-25T00:11:42.693Z,54.23
2023-03-25T00:14:17.194Z,54.16
2023-03-25T00:16:48.431Z,54.01
2023-03-25T00:19:16.699Z,54.00
2023-03-25T00:21:44.992Z,54.12
2023-03-25T00:24:17.781Z,54.03
2023-03-25T00:26:46.232Z,54.30
2023-03-25T00:29:15.719Z,54.49
2023-03-25T00:31:43.683Z,54.27
2023-03-25T00:34:14.467Z,54.22
2023-03-25T00:36:43.808Z,54.20
2023-03-25T00:39:11.783Z,54.18
2023-03-25T00:41:42.100Z,54.25
2023-03-25T00:44:12.365Z,54.19
2023-03-25T00:46:41.757Z,54.31
2023-03-25T00:49:10.828Z,54.12
2023-03-25T00:51:52.522Z,53.99
2023-03-25T00:54:22.339Z,53.94
2023-03-25T00:56:50.469Z,54.01
2023-03-25T00:59:18.440Z,54.23
2023-03-25T01:01:48.868Z,54.22
2023-03-25T01:04:18.189Z,54.00
2023-03-25T01:06:46.189Z,54.29
2023-03-25T01:09:15.524Z,54.17
2023-03-25T01:11:44.320Z,54.50
2023-03-25T01:14:14.200Z,54.65
2023-03-25T01:16:42.438Z,54.66
2023-03-25T01:19:11.746Z,54.63
2023-03-25T01:21:39.711Z,54.48
2023-03-25T01:24:08.304Z,54.59
2023-03-25T01:26:36.312Z,54.35
2023-03-25T01:29:04.208Z,54.62
2023-03-25T01:31:32.138Z,54.68
2023-03-25T01:34:00.133Z,54.78
2023-03-25T01:36:30.398Z,54.89
2023-03-25T01:38:59.298Z,54.86
2023-03-25T01:41:35.689Z,54.94
2023-03-25T01:44:07.747Z,55.05
2023-03-25T01:46:35.730Z,54.90
2023-03-25T01:49:05.159Z,55.00
2023-03-25T01:51:36.050Z,54.73
2023-03-25T01:54:03.944Z,54.95
2023-03-25T01:56:33.456Z,54.87
2023-03-25T01:59:02.473Z,55.04
2023-03-25T02:01:31.430Z,54.85
2023-03-25T02:04:03.091Z,54.79
2023-03-25T02:06:33.949Z,54.95
2023-03-25T02:09:05.069Z,54.80
2023-03-25T02:11:33.052Z,54.70
2023-03-25T02:14:02.726Z,54.88
2023-03-25T02:16:34.335Z,54.78
2023-03-25T02:19:13.342Z,55.05
2023-03-25T02:22:07.517Z,54.90
2023-03-25T02:25:22.779Z,54.53
2023-03-25T02:28:02.911Z,54.49
2023-03-25T02:30:41.858Z,54.90
2023-03-25T02:33:35.767Z,54.75
2023-03-25T02:36:19.579Z,54.90
2023-03-25T02:38:49.727Z,54.69
2023-03-25T02:41:19.664Z,54.86
2023-03-25T02:43:49.951Z,54.87
2023-03-25T02:46:18.816Z,54.81
2023-03-25T02:48:52.638Z,54.77
2023-03-25T02:51:23.149Z,54.75
2023-03-25T02:53:52.887Z,54.75
2023-03-25T02:56:22.911Z,54.92
2023-03-25T02:58:51.608Z,54.61
2023-03-25T03:01:23.022Z,54.67
2023-03-25T03:03:51.023Z,55.06
2023-03-25T03:06:19.351Z,54.83
2023-03-25T03:09:13.136Z,54.98
2023-03-25T03:11:42.988Z,55.02
2023-03-25T03:14:31.508Z,55.30
2023-03-25T03:17:04.211Z,55.23
2023-03-25T03:19:38.325Z,55.08
2023-03-25T03:22:15.273Z,54.97
2023-03-25T03:24:46.001Z,55.26
2023-03-25T03:27:14.913Z,55.24
2023-03-25T03:29:45.698Z,54.97
2023-03-25T03:32:15.686Z,54.90
2023-03-25T03:34:46.544Z,54.68
2023-03-25T03:37:16.188Z,54.49
2023-03-25T03:39:45.521Z,54.83
2023-03-25T03:42:15.839Z,54.72
2023-03-25T03:44:45.240Z,54.91
2023-03-25T03:47:14.297Z,54.75
2023-03-25T03:49:43.544Z,55.03
2023-03-25T03:52:12.717Z,55.19
2023-03-25T03:54:43.311Z,55.10
2023-03-25T03:57:14.452Z,55.16
2023-03-25T03:59:46.463Z,55.49
2023-03-25T04:02:18.207Z,55.33
2023-03-25T04:04:46.097Z,55.75
2023-03-25T04:07:15.802Z,55.92
2023-03-25T04:09:54.893Z,55.94
2023-03-25T04:12:25.870Z,56.12
2023-03-25T04:14:54.596Z,56.25
2023-03-25T04:17:22.661Z,56.22
2023-03-25T04:19:53.702Z,56.02
2023-03-25T04:22:21.899Z,56.07
2023-03-25T04:24:51.950Z,56.05
2023-03-25T04:27:23.249Z,56.00
2023-03-25T04:29:52.990Z,55.59
2023-03-25T04:32:20.952Z,55.88
2023-03-25T04:34:48.830Z,55.67
2023-03-25T04:37:16.718Z,55.49
2023-03-25T04:39:44.580Z,55.67
2023-03-25T04:42:13.823Z,55.52
2023-03-25T04:44:41.803Z,55.57
2023-03-25T04:47:14.983Z,55.42
2023-03-25T04:49:45.238Z,55.43
2023-03-25T04:52:13.339Z,55.34
2023-03-25T04:54:41.368Z,55.51
2023-03-25T04:57:09.810Z,55.73
2023-03-25T04:59:38.062Z,55.37
2023-03-25T05:02:06.257Z,55.33
2023-03-25T05:04:35.490Z,55.30
2023-03-25T05:07:04.237Z,55.28
2023-03-25T05:09:32.171Z,55.39
2023-03-25T05:12:00.186Z,55.16
2023-03-25T05:14:28.153Z,55.15
2023-03-25T05:16:59.421Z,55.21
2023-03-25T05:19:28.805Z,55.46
2023-03-25T05:21:58.437Z,55.70
2023-03-25T05:24:26.349Z,55.69
2023-03-25T05:26:54.978Z,55.85
2023-03-25T05:29:22.955Z,56.08
2023-03-25T05:31:50.987Z,55.89
2023-03-25T05:34:20.747Z,56.02
2023-03-25T05:36:48.815Z,55.83
2023-03-25T05:39:18.074Z,55.77
2023-03-25T05:41:46.192Z,55.92
2023-03-25T05:44:15.604Z,55.64
2023-03-25T05:46:44.293Z,56.04
2023-03-25T05:49:12.276Z,56.09
2023-03-25T05:51:40.716Z,56.77
2023-03-25T05:54:11.463Z,57.74
2023-03-25T05:56:41.475Z,58.08
2023-03-25T05:59:10.406Z,58.48
2023-03-25T06:01:38.568Z,59.24
2023-03-25T06:04:10.348Z,59.62
2023-03-25T06:06:38.652Z,59.90
2023-03-25T06:09:06.904Z,59.70
2023-03-25T06:11:38.821Z,59.62
2023-03-25T06:14:08.334Z,59.75
2023-03-25T06:16:36.287Z,59.61
2023-03-25T06:19:04.272Z,59.33
2023-03-25T06:21:34.029Z,58.95
2023-03-25T06:24:02.439Z,59.05
2023-03-25T06:26:30.419Z,58.57
2023-03-25T06:28:58.665Z,58.50
2023-03-25T06:31:28.152Z,58.57
2023-03-25T06:33:57.633Z,58.45
2023-03-25T06:36:27.412Z,58.57
2023-03-25T06:38:55.330Z,58.34
2023-03-25T06:41:25.259Z,57.97
2023-03-25T06:43:53.426Z,57.68
2023-03-25T06:46:21.412Z,57.94
2023-03-25T06:48:50.669Z,57.64
2023-03-25T06:51:18.559Z,57.78
2023-03-25T06:53:46.552Z,57.65
2023-03-25T06:56:14.739Z,57.46
2023-03-25T06:58:43.320Z,57.44
2023-03-25T07:01:11.209Z,57.69
2023-03-25T07:03:39.425Z,57.46
2023-03-25T07:06:09.748Z,57.81
2023-03-25T07:08:37.655Z,57.48
2023-03-25T07:11:07.477Z,57.89
2023-03-25T07:13:35.475Z,57.82
2023-03-25T07:16:03.518Z,57.64
2023-03-25T07:18:31.610Z,57.90
2023-03-25T07:20:59.767Z,57.78
2023-03-25T07:23:29.057Z,57.75
2023-03-25T07:25:58.045Z,57.81
2023-03-25T07:28:26.121Z,57.83
2023-03-25T07:30:54.356Z,57.91
2023-03-25T07:33:22.470Z,57.93
2023-03-25T07:35:50.584Z,57.99
2023-03-25T07:38:19.141Z,57.91
2023-03-25T07:40:49.943Z,58.31
2023-03-25T07:43:18.431Z,58.22
2023-03-25T07:45:46.340Z,58.15
2023-03-25T07:48:16.344Z,57.63
2023-03-25T07:50:45.769Z,57.85
2023-03-25T07:53:13.710Z,57.57
2023-03-25T07:55:41.628Z,57.72
2023-03-25T07:58:10.981Z,57.66
2023-03-25T08:00:38.920Z,57.29
2023-03-25T08:03:06.994Z,57.32
2023-03-25T08:05:35.853Z,57.57
2023-03-25T08:08:06.007Z,57.20
2023-03-25T08:10:35.231Z,57.28
2023-03-25T08:13:03.269Z,57.27
2023-03-25T08:15:32.692Z,57.16
2023-03-25T08:18:01.820Z,56.82
2023-03-25T08:20:29.743Z,56.68
2023-03-25T08:22:58.838Z,56.54
2023-03-25T08:25:26.752Z,56.48
2023-03-25T08:27:54.890Z,56.50
2023-03-25T08:30:22.909Z,56.42
2023-03-25T08:32:54.854Z,56.53
2023-03-25T08:35:23.803Z,56.76
2023-03-25T08:37:52.000Z,56.73
2023-03-25T08:40:20.192Z,56.84
2023-03-25T08:42:48.135Z,56.69
2023-03-25T08:45:16.328Z,57.06
2023-03-25T08:47:45.720Z,56.93
2023-03-25T08:50:15.070Z,56.96
2023-03-25T08:52:42.970Z,56.65
2023-03-25T08:55:12.432Z,56.79
2023-03-25T08:57:42.458Z,56.32
2023-03-25T09:00:14.167Z,56.52
2023-03-25T09:02:42.573Z,56.42
2023-03-25T09:05:10.955Z,56.15
2023-03-25T09:07:40.338Z,56.18
2023-03-25T09:10:09.543Z,56.09
2023-03-25T09:12:37.488Z,56.01
2023-03-25T09:15:05.884Z,56.05
2023-03-25T09:17:33.766Z,56.07
2023-03-25T09:20:02.283Z,55.56
2023-03-25T09:22:30.225Z,55.29
2023-03-25T09:24:59.708Z,54.99
2023-03-25T09:27:27.787Z,55.19
2023-03-25T09:29:55.967Z,54.96
2023-03-25T09:32:23.895Z,55.04
2023-03-25T09:34:51.836Z,55.04
2023-03-25T09:37:19.767Z,55.08
2023-03-25T09:39:47.915Z,55.29
2023-03-25T09:42:37.932Z,54.70
2023-03-25T09:45:13.273Z,54.56
2023-03-25T09:47:41.635Z,54.47
2023-03-25T09:50:13.275Z,54.57
2023-03-25T09:52:47.863Z,53.98
2023-03-25T09:55:19.106Z,53.51
2023-03-25T09:57:49.631Z,53.39
2023-03-25T10:00:18.992Z,53.28
2023-03-25T10:02:48.248Z,52.70
2023-03-25T10:05:21.084Z,52.64
2023-03-25T10:08:00.107Z,52.35
2023-03-25T10:10:29.691Z,52.46
2023-03-25T10:13:04.477Z,52.24
2023-03-25T10:15:34.808Z,54.05
2023-03-25T10:18:10.225Z,55.27
2023-03-25T10:20:44.363Z,56.26
2023-03-25T10:23:17.249Z,57.18
2023-03-25T10:25:47.300Z,57.94
2023-03-25T10:28:18.940Z,58.62
2023-03-25T10:30:47.848Z,59.39
2023-03-25T10:33:18.909Z,59.54
2023-03-25T10:35:48.480Z,59.73
2023-03-25T10:38:18.948Z,59.91
2023-03-25T10:40:50.321Z,59.93
2023-03-25T10:43:25.687Z,59.83
2023-03-25T10:45:55.618Z,59.84
2023-03-25T10:48:25.315Z,59.55
2023-03-25T10:50:53.574Z,59.46
2023-03-25T10:53:24.319Z,59.17
2023-03-25T10:55:57.747Z,58.70
2023-03-25T10:58:27.153Z,58.20
2023-03-25T11:00:55.061Z,58.31
2023-03-25T11:03:25.376Z,57.46
2023-03-25T11:05:54.164Z,57.66
2023-03-25T11:08:24.903Z,57.00
2023-03-25T11:10:57.433Z,57.25
2023-03-25T11:13:27.908Z,57.14
2023-03-25T11:15:56.407Z,55.62
2023-03-25T11:18:26.131Z,56.14
2023-03-25T11:20:57.821Z,55.96
2023-03-25T11:23:27.526Z,54.26
2023-03-25T11:25:55.748Z,52.62
2023-03-25T11:28:39.604Z,51.87
2023-03-25T11:31:12.618Z,51.95
2023-03-25T11:33:41.158Z,51.41
2023-03-25T11:36:21.960Z,51.25
2023-03-25T11:38:53.906Z,51.02
2023-03-25T11:41:21.818Z,50.74
2023-03-25T11:43:51.120Z,50.12
2023-03-25T11:46:19.892Z,50.34
2023-03-25T11:48:47.910Z,49.89
2023-03-25T11:51:16.851Z,50.13
2023-03-25T11:53:46.119Z,50.71
2023-03-25T11:56:20.659Z,49.98
2023-03-25T11:58:49.961Z,49.27
2023-03-25T12:01:28.080Z,49.29
2023-03-25T12:04:07.701Z,49.26
2023-03-25T12:06:35.672Z,48.84
2023-03-25T12:09:05.568Z,48.97
2023-03-25T12:11:34.942Z,48.23
2023-03-25T12:14:15.960Z,47.71
2023-03-25T12:16:46.438Z,47.14
2023-03-25T12:19:17.664Z,47.29
2023-03-25T12:21:55.105Z,46.96
2023-03-25T12:24:33.023Z,47.09
2023-03-25T12:27:10.407Z,47.69
2023-03-25T12:29:42.967Z,47.82
2023-03-25T12:32:19.494Z,46.98
2023-03-25T12:34:53.578Z,46.78
2023-03-25T12:37:26.393Z,46.28
2023-03-25T12:40:06.675Z,46.81
2023-03-25T12:42:39.787Z,46.72
2023-03-25T12:45:40.910Z,46.00
2023-03-25T12:48:12.114Z,46.15
2023-03-25T12:50:46.083Z,46.39
2023-03-25T12:53:24.393Z,46.21
2023-03-25T12:55:58.061Z,45.89
2023-03-25T12:58:41.804Z,45.33
2023-03-25T13:01:14.138Z,45.58
2023-03-25T13:03:55.823Z,45.98
2023-03-25T13:06:30.353Z,46.08
2023-03-25T13:09:00.031Z,46.28
2023-03-25T13:11:29.883Z,45.63
2023-03-25T13:13:59.679Z,45.57
2023-03-25T13:16:29.532Z,45.28
2023-03-25T13:19:01.340Z,45.60
2023-03-25T13:21:30.228Z,45.84
2023-03-25T13:23:59.451Z,44.89
2023-03-25T13:26:29.435Z,44.09
2023-03-25T13:28:59.297Z,44.14
2023-03-25T13:31:30.314Z,44.04
2023-03-25T13:34:02.569Z,44.26
2023-03-25T13:36:33.392Z,44.19
2023-03-25T13:39:04.774Z,44.34
2023-03-25T13:41:35.627Z,44.83
2023-03-25T13:44:05.877Z,45.35
2023-03-25T13:46:37.311Z,45.33
2023-03-25T13:49:07.651Z,45.93
2023-03-25T13:51:35.839Z,46.57
2023-03-25T13:54:05.746Z,46.99
2023-03-25T13:56:58.744Z,47.37
2023-03-25T13:59:57.557Z,48.53
2023-03-25T14:02:38.892Z,48.54
2023-03-25T14:05:45.755Z,48.81
2023-03-25T14:08:38.516Z,49.23
2023-03-25T14:11:18.306Z,49.35
2023-03-25T14:13:47.081Z,49.44
2023-03-25T14:16:16.435Z,49.41
2023-03-25T14:18:47.230Z,49.66
2023-03-25T14:21:23.746Z,49.44
2023-03-25T14:24:00.839Z,49.47
2023-03-25T14:26:28.764Z,49.18
2023-03-25T14:28:58.141Z,49.21
2023-03-25T14:31:30.115Z,48.79
2023-03-25T14:34:25.531Z,48.77
2023-03-25T14:37:30.686Z,48.38
2023-03-25T14:40:00.880Z,48.48
2023-03-25T14:42:41.386Z,48.21
2023-03-25T14:45:35.555Z,48.02
2023-03-25T14:48:15.806Z,47.96
2023-03-25T14:50:56.057Z,48.26
2023-03-25T14:53:23.963Z,48.32
2023-03-25T14:55:52.072Z,47.97
2023-03-25T14:58:21.236Z,47.71
2023-03-25T15:00:54.785Z,47.96
2023-03-25T15:03:23.411Z,47.08
2023-03-25T15:06:00.283Z,46.22
2023-03-25T15:08:32.396Z,45.68
2023-03-25T15:11:05.810Z,46.00
2023-03-25T15:13:35.261Z,45.00
2023-03-25T15:16:04.575Z,44.31
2023-03-25T15:19:04.280Z,43.30
2023-03-25T15:21:35.002Z,43.91
2023-03-25T15:24:06.495Z,44.19
2023-03-25T15:26:35.597Z,44.09
2023-03-25T15:29:31.996Z,44.56
2023-03-25T15:32:07.437Z,44.86
2023-03-25T15:34:57.356Z,45.64
2023-03-25T15:37:50.306Z,45.96
2023-03-25T15:40:27.526Z,46.04
2023-03-25T15:43:22.221Z,46.40
2023-03-25T15:46:24.672Z,46.14
2023-03-25T15:49:03.302Z,46.54
2023-03-25T15:51:55.847Z,47.34
2023-03-25T15:54:33.087Z,47.33
2023-03-25T15:57:03.158Z,47.92
2023-03-25T15:59:38.171Z,47.79
2023-03-25T16:02:08.276Z,47.99
2023-03-25T16:04:39.307Z,47.93
2023-03-25T16:07:08.122Z,48.13
2023-03-25T16:09:41.842Z,48.38
2023-03-25T16:12:10.540Z,48.83
2023-03-25T16:14:39.583Z,49.56
2023-03-25T16:17:08.982Z,50.20
2023-03-25T16:19:41.566Z,50.75
2023-03-25T16:22:19.975Z,51.35
2023-03-25T16:24:50.045Z,52.03
2023-03-25T16:27:23.397Z,53.20
2023-03-25T16:29:52.869Z,53.38
2023-03-25T16:32:21.920Z,54.26
2023-03-25T16:34:50.375Z,54.28
2023-03-25T16:37:19.085Z,54.35
2023-03-25T16:39:53.391Z,54.79
2023-03-25T16:42:26.554Z,55.33
2023-03-25T16:44:54.754Z,55.05
2023-03-25T16:47:22.754Z,55.12
2023-03-25T16:49:52.543Z,55.21
2023-03-25T16:52:23.589Z,55.66
2023-03-25T16:55:14.961Z,55.54
2023-03-25T16:57:43.055Z,55.68
2023-03-25T17:00:18.216Z,55.61
2023-03-25T17:02:48.505Z,55.47
2023-03-25T17:05:19.453Z,55.73
2023-03-25T17:07:51.131Z,55.70
2023-03-25T17:10:23.037Z,55.51
2023-03-25T17:12:55.972Z,55.63
2023-03-25T17:15:24.352Z,55.69
2023-03-25T17:17:53.780Z,55.73
2023-03-25T17:20:23.487Z,55.57
2023-03-25T17:23:02.749Z,55.60
2023-03-25T17:25:33.550Z,55.70
2023-03-25T17:28:19.836Z,56.05
2023-03-25T17:30:47.912Z,56.17
2023-03-25T17:33:17.221Z,56.18
2023-03-25T17:35:45.346Z,56.11
2023-03-25T17:38:17.087Z,56.51
2023-03-25T17:40:46.694Z,56.29
2023-03-25T17:43:19.316Z,56.53
2023-03-25T17:45:47.406Z,56.66
2023-03-25T17:48:16.970Z,56.98
2023-03-25T17:50:51.732Z,56.90
2023-03-25T17:53:20.331Z,56.94
2023-03-25T17:55:50.045Z,56.96
2023-03-25T17:58:18.302Z,56.85
2023-03-25T18:00:46.750Z,57.05
2023-03-25T18:03:16.400Z,56.93
2023-03-25T18:05:45.551Z,57.18
2023-03-25T18:08:15.683Z,57.26
2023-03-25T18:10:43.910Z,57.42
2023-03-25T18:13:24.796Z,57.30
2023-03-25T18:15:53.089Z,57.69
2023-03-25T18:18:24.331Z,57.62
2023-03-25T18:20:52.780Z,58.07
2023-03-25T18:23:21.316Z,58.46
2023-03-25T18:25:49.276Z,58.19
2023-03-25T18:28:18.598Z,58.67
2023-03-25T18:30:47.027Z,58.59
2023-03-25T18:33:15.816Z,58.37
2023-03-25T18:35:43.938Z,58.49
2023-03-25T18:38:15.809Z,58.69
2023-03-25T18:40:43.780Z,58.56
2023-03-25T18:43:11.710Z,58.57
2023-03-25T18:45:41.063Z,58.65
2023-03-25T18:48:09.086Z,58.74
2023-03-25T18:50:37.655Z,58.85
2023-03-25T18:53:05.712Z,59.02
2023-03-25T18:55:34.150Z,58.99
2023-03-25T18:58:03.394Z,59.04
2023-03-25T19:00:32.307Z,59.43
2023-03-25T19:03:01.648Z,59.35
2023-03-25T19:05:29.574Z,59.49
2023-03-25T19:07:57.660Z,59.31
2023-03-25T19:10:26.515Z,59.39
2023-03-25T19:12:54.417Z,59.53
2023-03-25T19:15:24.953Z,59.47
2023-03-25T19:17:53.101Z,59.72
2023-03-25T19:20:24.061Z,59.39
2023-03-25T19:22:52.253Z,59.67
2023-03-25T19:25:20.164Z,59.56
2023-03-25T19:27:48.113Z,59.77
2023-03-25T19:30:17.626Z,59.77
2023-03-25T19:32:47.050Z,59.53
2023-03-25T19:35:15.670Z,59.55
2023-03-25T19:37:47.548Z,59.60
2023-03-25T19:40:17.178Z,59.56
2023-03-25T19:42:45.030Z,59.54
2023-03-25T19:45:13.816Z,59.70
2023-03-25T19:47:42.965Z,59.84
2023-03-25T19:50:11.378Z,59.51
2023-03-25T19:52:40.112Z,59.69
2023-03-25T19:55:10.950Z,60.02
2023-03-25T19:57:38.880Z,59.90
2023-03-25T20:00:12.601Z,59.72
2023-03-25T20:02:41.101Z,59.94
2023-03-25T20:05:10.682Z,59.92
2023-03-25T20:07:38.566Z,59.68
2023-03-25T20:10:18.977Z,59.94
2023-03-25T20:12:48.882Z,59.89
2023-03-25T20:15:17.497Z,59.75
2023-03-25T20:17:45.571Z,59.97
2023-03-25T20:20:14.862Z,59.90
2023-03-25T20:22:42.781Z,59.85
2023-03-25T20:25:11.351Z,59.92
2023-03-25T20:27:39.443Z,60.03
2023-03-25T20:30:10.123Z,59.82
2023-03-25T20:32:41.356Z,60.00
2023-03-25T20:35:12.546Z,60.12
2023-03-25T20:37:41.198Z,59.86
2023-03-25T20:40:11.215Z,60.01
2023-03-25T20:42:39.977Z,59.82
2023-03-25T20:45:10.971Z,60.08
2023-03-25T20:47:38.932Z,59.94
2023-03-25T20:50:07.059Z,59.60
2023-03-25T20:52:36.331Z,59.62
2023-03-25T20:55:05.669Z,59.74
2023-03-25T20:57:33.628Z,59.64
2023-03-25T21:00:01.493Z,59.58
2023-03-25T21:02:30.955Z,59.88
2023-03-25T21:05:01.011Z,59.92
2023-03-25T21:07:31.739Z,59.92
2023-03-25T21:09:59.855Z,60.29
2023-03-25T21:12:40.645Z,60.26
2023-03-25T21:15:11.349Z,60.46
2023-03-25T21:17:40.608Z,60.12
2023-03-25T21:20:10.144Z,60.44
2023-03-25T21:22:42.927Z,60.39
2023-03-25T21:25:11.699Z,60.57
2023-03-25T21:27:40.156Z,60.53
2023-03-25T21:30:09.646Z,60.48
2023-03-25T21:32:37.900Z,60.58
2023-03-25T21:35:08.177Z,60.47
2023-03-25T21:37:38.510Z,60.54
2023-03-25T21:40:10.433Z,60.48
2023-03-25T21:42:39.464Z,60.59
2023-03-25T21:45:10.756Z,60.64
2023-03-25T21:47:38.665Z,60.50
2023-03-25T21:50:09.695Z,60.55
2023-03-25T21:52:38.210Z,60.39
2023-03-25T21:55:07.104Z,60.35
2023-03-25T21:57:38.134Z,60.56
2023-03-25T22:00:08.654Z,60.48
2023-03-25T22:02:36.614Z,60.70
2023-03-25T22:05:04.601Z,60.64
2023-03-25T22:07:33.836Z,60.63
2023-03-25T22:10:01.705Z,60.81
2023-03-25T22:12:30.101Z,60.85
2023-03-25T22:14:57.971Z,60.94
2023-03-25T22:17:26.064Z,60.77
2023-03-25T22:19:54.001Z,60.87
2023-03-25T22:22:21.895Z,60.95
2023-03-25T22:24:51.383Z,60.93
2023-03-25T22:27:19.281Z,60.86
2023-03-25T22:29:47.117Z,60.85
2023-03-25T22:32:14.954Z,60.80
2023-03-25T22:34:42.804Z,60.95
2023-03-25T22:37:10.763Z,60.91
2023-03-25T22:39:39.003Z,60.62
2023-03-25T22:42:08.355Z,60.86
2023-03-25T22:44:36.255Z,60.66
2023-03-25T22:47:04.339Z,60.60
2023-03-25T22:49:32.347Z,60.27
2023-03-25T22:52:01.312Z,60.41
2023-03-25T22:54:29.268Z,60.69
2023-03-25T22:56:57.176Z,60.75
2023-03-25T22:59:26.445Z,61.06
2023-03-25T23:01:54.662Z,60.94
2023-03-25T23:04:22.673Z,60.80
2023-03-25T23:07:04.748Z,61.21
2023-03-25T23:09:45.042Z,61.25
2023-03-25T23:12:14.077Z,61.33
2023-03-25T23:14:44.634Z,61.43
2023-03-25T23:17:12.683Z,61.41
2023-03-25T23:19:40.660Z,61.44
2023-03-25T23:22:09.210Z,61.28
2023-03-25T23:24:37.313Z,61.24
2023-03-25T23:27:05.681Z,61.49
2023-03-25T23:29:35.843Z,61.61
2023-03-25T23:32:05.252Z,61.42
2023-03-25T23:34:33.944Z,61.33
2023-03-25T23:37:02.051Z,61.37
2023-03-25T23:39:30.164Z,61.33
2023-03-25T23:41:58.098Z,61.76
2023-03-25T23:44:26.107Z,61.32
2023-03-25T23:46:54.008Z,61.29
2023-03-25T23:49:23.291Z,61.45
2023-03-25T23:51:51.370Z,61.35
2023-03-25T23:54:19.283Z,61.31
2023-03-25T23:56:47.256Z,61.17
2023-03-25T23:59:15.139Z,61.20
